createdAt,value
2018-04-28T00:02:21.922Z,69.60
2018-04-28T00:04:50.163Z,69.60
2018-04-28T00:07:18.408Z,69.70
2018-04-28T00:09:46.665Z,69.70
2018-04-28T00:12:14.946Z,69.90
2018-04-28T00:14:43.209Z,69.90
2018-04-28T00:17:17.420Z,69.90
2018-04-28T00:19:47.923Z,70.00
2018-04-28T00:22:23.535Z,69.90
2018-04-28T00:24:55.578Z,70.00
2018-04-28T00:27:33.331Z,69.70
2018-04-28T00:30:03.439Z,69.40
2018-04-28T00:32:31.683Z,69.30
2018-04-28T00:35:09.049Z,68.90
2018-04-28T00:37:53.902Z,68.30
2018-04-28T00:40:27.878Z,68.10
2018-04-28T00:42:59.284Z,67.40
2018-04-28T00:45:37.348Z,67.30
2018-04-28T00:48:36.896Z,66.80
2018-04-28T00:51:20.265Z,66.80
2018-04-28T00:53:49.212Z,66.90
2018-04-28T00:56:20.543Z,66.90
2018-04-28T00:58:53.965Z,67.30
2018-04-28T01:01:29.408Z,67.20
2018-04-28T01:07:03.536Z,68.90
2018-04-28T01:09:31.769Z,68.90
2018-04-28T01:12:01.095Z,68.90
2018-04-28T01:14:36.078Z,69.80
2018-04-28T01:17:04.326Z,69.20
2018-04-28T01:19:42.145Z,69.10
2018-04-28T01:22:10.477Z,69.10
2018-04-28T01:24:41.930Z,69.30
2018-04-28T01:27:15.374Z,69.00
2018-04-28T01:29:57.378Z,69.00
2018-04-28T01:32:26.430Z,69.00
2018-04-28T01:34:59.992Z,68.90
2018-04-28T01:37:42.155Z,68.90
2018-04-28T01:40:13.148Z,69.20
2018-04-28T01:43:00.627Z,69.20
2018-04-28T01:45:46.986Z,69.00
2018-04-28T01:48:26.325Z,69.30
2018-04-28T01:57:19.447Z,69.50
2018-04-28T02:03:11.178Z,69.40
2018-04-28T02:05:51.014Z,69.50
2018-04-28T02:08:20.042Z,69.00
2018-04-28T02:10:54.966Z,69.00
2018-04-28T02:13:43.698Z,69.30
2018-04-28T02:19:21.635Z,69.40
2018-04-28T02:22:06.493Z,69.40
2018-04-28T02:24:42.626Z,70.40
2018-04-28T02:27:11.638Z,69.60
2018-04-28T02:29:42.313Z,69.60
2018-04-28T02:35:28.482Z,69.70
2018-04-28T02:37:58.510Z,69.90
2018-04-28T02:43:28.372Z,69.80
2018-04-28T02:46:02.895Z,69.90
2018-04-28T02:51:49.235Z,70.20
2018-04-28T02:54:24.269Z,70.20
2018-04-28T02:56:59.399Z,70.30
2018-04-28T03:02:35.411Z,70.40
2018-04-28T03:05:44.655Z,70.80
2018-04-28T03:08:18.202Z,70.70
2018-04-28T03:11:03.250Z,70.50
2018-04-28T03:13:50.450Z,70.60
2018-04-28T03:16:52.088Z,70.80
2018-04-28T03:19:21.987Z,71.00
2018-04-28T03:21:50.933Z,70.90
2018-04-28T03:30:59.950Z,71.00
2018-04-28T03:33:39.486Z,71.10
2018-04-28T03:36:17.333Z,71.00
2018-04-28T03:38:54.250Z,71.30
2018-04-28T03:41:26.042Z,71.30
2018-04-28T03:50:30.340Z,71.10
2018-04-28T03:53:18.743Z,71.20
2018-04-28T03:55:46.980Z,71.20
2018-04-28T04:01:46.250Z,71.30
2018-04-28T04:07:21.897Z,71.40
2018-04-28T04:10:01.428Z,71.40
2018-04-28T04:12:33.350Z,72.10
2018-04-28T04:15:01.597Z,71.40
2018-04-28T04:17:47.522Z,72.10
2018-04-28T04:23:24.648Z,70.70
2018-04-28T04:29:46.110Z,68.90
2018-04-28T04:32:18.605Z,68.50
2018-04-28T04:38:14.885Z,65.40
2018-04-28T04:40:44.767Z,65.40
2018-04-28T04:43:16.050Z,63.90
2018-04-28T04:45:56.173Z,62.40
2018-04-28T04:52:06.610Z,60.30
2018-04-28T05:01:04.426Z,60.40
2018-04-28T05:07:09.197Z,59.40
2018-04-28T05:13:23.246Z,58.40
2018-04-28T05:16:05.721Z,58.40
2018-04-28T05:18:46.562Z,58.10
2018-04-28T05:21:46.358Z,58.10
2018-04-28T05:27:32.137Z,57.60
2018-04-28T05:30:12.054Z,57.70
2018-04-28T05:32:58.197Z,57.00
2018-04-28T05:39:18.634Z,56.20
2018-04-28T05:41:54.278Z,55.30
2018-04-28T05:47:51.050Z,55.00
2018-04-28T05:50:36.055Z,55.00
2018-04-28T05:56:21.038Z,54.60
2018-04-28T05:58:58.099Z,53.90
2018-04-28T06:01:41.957Z,52.30
2018-04-28T06:04:28.682Z,53.80
2018-04-28T06:07:20.434Z,53.80
2018-04-28T06:10:01.235Z,53.80
2018-04-28T06:12:56.821Z,54.10
2018-04-28T06:21:52.546Z,52.60
2018-04-28T06:24:20.794Z,52.60
2018-04-28T06:26:49.044Z,51.80
2018-04-28T06:29:17.291Z,53.40
2018-04-28T06:31:45.548Z,52.10
2018-04-28T06:34:13.793Z,51.60
2018-04-28T06:36:42.792Z,51.30
2018-04-28T06:39:11.047Z,51.30
2018-04-28T06:41:39.302Z,49.70
2018-04-28T06:44:07.534Z,50.70
2018-04-28T06:46:36.550Z,50.60
2018-04-28T06:49:04.782Z,50.60
2018-04-28T06:51:33.018Z,50.80
2018-04-28T06:54:01.266Z,50.90
2018-04-28T06:56:29.510Z,51.00
2018-04-28T06:58:57.750Z,50.40
2018-04-28T07:01:26.111Z,51.70
2018-04-28T07:03:54.651Z,50.80
2018-04-28T07:06:23.664Z,50.00
2018-04-28T07:08:51.906Z,49.80
2018-04-28T07:11:20.437Z,49.80
2018-04-28T07:13:48.671Z,49.80
2018-04-28T07:16:16.907Z,49.00
2018-04-28T07:18:45.154Z,50.00
2018-04-28T07:21:13.398Z,49.60
2018-04-28T07:23:42.408Z,48.90
2018-04-28T07:26:11.406Z,48.70
2018-04-28T07:28:39.705Z,48.60
2018-04-28T07:31:07.954Z,49.20
2018-04-28T07:33:36.976Z,49.30
2018-04-28T07:36:05.214Z,49.20
2018-04-28T07:38:34.217Z,47.40
2018-04-28T07:41:02.471Z,47.30
2018-04-28T07:43:30.706Z,48.00
2018-04-28T07:45:58.955Z,47.70
2018-04-28T07:48:27.200Z,48.00
2018-04-28T07:50:56.519Z,46.70
2018-04-28T07:53:25.522Z,44.50
2018-04-28T07:55:53.792Z,44.40
2018-04-28T07:58:22.043Z,45.50
2018-04-28T08:00:50.371Z,46.70
2018-04-28T08:03:18.595Z,45.50
2018-04-28T08:05:46.855Z,45.40
2018-04-28T08:08:15.186Z,45.80
2018-04-28T08:10:43.641Z,45.00
2018-04-28T08:13:12.667Z,46.40
2018-04-28T08:15:40.911Z,46.40
2018-04-28T08:18:10.178Z,45.40
2018-04-28T08:20:38.427Z,45.30
2018-04-28T08:23:06.659Z,44.70
2018-04-28T08:25:35.680Z,45.90
2018-04-28T08:28:03.914Z,45.90
2018-04-28T08:30:32.922Z,44.90
2018-04-28T08:33:01.942Z,44.70
2018-04-28T08:35:30.174Z,44.70
2018-04-28T08:37:58.402Z,44.20
2018-04-28T08:40:26.669Z,44.80
2018-04-28T08:42:54.923Z,43.90
2018-04-28T08:45:23.919Z,44.00
2018-04-28T08:47:52.918Z,39.70
2018-04-28T08:50:21.170Z,39.70
2018-04-28T08:52:50.171Z,45.60
2018-04-28T08:55:19.182Z,43.40
2018-04-28T08:57:47.433Z,43.30
2018-04-28T09:00:29.540Z,42.50
2018-04-28T09:02:58.851Z,41.60
2018-04-28T09:05:27.086Z,41.70
2018-04-28T09:07:55.326Z,42.90
2018-04-28T09:10:23.670Z,42.00
2018-04-28T09:12:52.674Z,42.80
2018-04-28T09:15:20.914Z,42.80
2018-04-28T09:17:49.174Z,42.40
2018-04-28T09:20:17.410Z,40.50
2018-04-28T09:22:45.651Z,41.20
2018-04-28T09:25:14.663Z,41.20
2018-04-28T09:27:43.671Z,39.90
2018-04-28T09:30:11.928Z,40.00
2018-04-28T09:32:41.952Z,41.90
2018-04-28T09:35:10.186Z,41.70
2018-04-28T09:37:38.431Z,41.10
2018-04-28T09:40:06.690Z,40.70
2018-04-28T09:42:34.929Z,41.20
2018-04-28T09:45:03.945Z,39.00
2018-04-28T09:47:32.950Z,40.40
2018-04-28T09:50:01.194Z,40.40
2018-04-28T09:52:29.442Z,40.90
2018-04-28T09:54:57.676Z,40.50
2018-04-28T09:57:25.939Z,39.60
2018-04-28T09:59:54.943Z,40.30
2018-04-28T10:02:23.185Z,40.30
2018-04-28T10:04:51.511Z,40.80
2018-04-28T10:07:19.750Z,39.80
2018-04-28T10:09:48.758Z,40.50
2018-04-28T10:12:17.009Z,40.40
2018-04-28T10:14:45.357Z,40.40
2018-04-28T10:17:14.298Z,40.70
2018-04-28T10:19:43.323Z,42.40
2018-04-28T10:22:11.575Z,42.30
2018-04-28T10:24:40.149Z,40.80
2018-04-28T10:27:09.181Z,41.30
2018-04-28T10:29:37.419Z,41.30
2018-04-28T10:32:06.450Z,40.30
2018-04-28T10:34:34.690Z,40.20
2018-04-28T10:37:02.950Z,41.60
2018-04-28T10:39:31.958Z,41.60
2018-04-28T10:42:00.977Z,40.90
2018-04-28T10:44:29.209Z,40.90
2018-04-28T10:46:58.321Z,41.10
2018-04-28T10:49:27.329Z,40.20
2018-04-28T10:51:55.572Z,40.20
2018-04-28T10:54:24.175Z,41.80
2018-04-28T10:56:53.197Z,40.90
2018-04-28T10:59:21.444Z,40.70
2018-04-28T11:01:49.692Z,39.80
2018-04-28T11:04:17.923Z,40.10
2018-04-28T11:06:46.386Z,39.30
2018-04-28T11:09:14.621Z,40.60
2018-04-28T11:11:42.850Z,40.00
2018-04-28T11:14:11.105Z,41.20
2018-04-28T11:16:40.118Z,41.80
2018-04-28T11:19:08.601Z,41.70
2018-04-28T11:21:36.826Z,40.40
2018-04-28T11:24:05.061Z,39.40
2018-04-28T11:26:33.315Z,37.80
2018-04-28T11:29:01.573Z,39.40
2018-04-28T11:31:29.834Z,40.00
2018-04-28T11:33:58.836Z,39.70
2018-04-28T11:36:28.146Z,40.30
2018-04-28T11:38:56.378Z,40.30
2018-04-28T11:41:24.621Z,39.50
2018-04-28T11:43:52.872Z,40.10
2018-04-28T11:46:21.866Z,39.20
2018-04-28T11:48:50.134Z,39.20
2018-04-28T11:51:19.146Z,40.70
2018-04-28T11:53:47.389Z,40.60
2018-04-28T11:56:15.626Z,39.80
2018-04-28T11:58:44.167Z,39.70
2018-04-28T12:01:12.401Z,39.00
2018-04-28T12:03:40.654Z,39.70
2018-04-28T12:06:09.202Z,41.00
2018-04-28T12:08:38.209Z,39.80
2018-04-28T12:11:06.449Z,39.80
2018-04-28T12:13:34.694Z,40.20
2018-04-28T12:16:02.967Z,41.00
2018-04-28T12:18:31.178Z,40.00
2018-04-28T12:21:00.226Z,40.70
2018-04-28T12:23:28.484Z,40.60
2018-04-28T12:25:56.717Z,41.10
2018-04-28T12:28:24.962Z,38.80
2018-04-28T12:30:53.230Z,40.40
2018-04-28T12:33:21.473Z,40.00
2018-04-28T12:35:49.713Z,40.30
2018-04-28T12:38:17.978Z,40.40
2018-04-28T12:40:46.239Z,40.80
2018-04-28T12:43:14.475Z,39.80
2018-04-28T12:45:43.469Z,39.30
2018-04-28T12:48:11.977Z,39.30
2018-04-28T12:50:40.229Z,41.40
2018-04-28T12:53:08.459Z,40.30
2018-04-28T12:55:36.710Z,40.80
2018-04-28T12:58:05.026Z,40.80
2018-04-28T13:00:34.040Z,39.70
2018-04-28T13:03:02.290Z,39.70
2018-04-28T13:05:30.616Z,40.10
2018-04-28T13:07:58.856Z,40.30
2018-04-28T13:10:27.866Z,40.00
2018-04-28T13:12:56.103Z,40.00
2018-04-28T13:15:24.350Z,39.60
2018-04-28T13:17:53.709Z,40.40
2018-04-28T13:20:21.953Z,39.60
2018-04-28T13:22:50.959Z,39.70
2018-04-28T13:25:19.469Z,39.60
2018-04-28T13:27:47.744Z,39.40
2018-04-28T13:30:15.989Z,40.90
2018-04-28T13:32:45.004Z,40.60
2018-04-28T13:35:13.259Z,40.50
2018-04-28T13:37:42.268Z,39.60
2018-04-28T13:40:11.288Z,41.00
2018-04-28T13:42:40.301Z,39.70
2018-04-28T13:45:08.635Z,39.60
2018-04-28T13:47:37.114Z,39.20
2018-04-28T13:50:05.354Z,40.80
2018-04-28T13:52:33.591Z,40.80
2018-04-28T13:55:02.046Z,40.10
2018-04-28T13:57:30.295Z,40.10
2018-04-28T13:59:58.533Z,39.00
2018-04-28T14:02:26.798Z,39.60
2018-04-28T14:04:55.031Z,39.40
2018-04-28T14:07:24.052Z,40.90
2018-04-28T14:09:52.305Z,40.20
2018-04-28T14:12:21.319Z,39.70
2018-04-28T14:14:49.611Z,39.60
2018-04-28T14:17:17.850Z,39.30
2018-04-28T14:19:46.855Z,42.30
2018-04-28T14:22:15.877Z,43.80
2018-04-28T14:24:44.113Z,43.80
2018-04-28T14:27:13.129Z,40.10
2018-04-28T14:29:41.365Z,40.10
2018-04-28T14:32:09.594Z,41.20
2018-04-28T14:34:37.846Z,40.20
2018-04-28T14:37:06.422Z,40.90
2018-04-28T14:39:35.506Z,40.70
2018-04-28T14:42:04.422Z,40.20
2018-04-28T14:44:32.715Z,40.10
2018-04-28T14:47:00.934Z,40.80
2018-04-28T14:49:29.196Z,41.50
2018-04-28T14:51:57.431Z,41.40
2018-04-28T14:54:25.685Z,41.80
2018-04-28T14:56:54.694Z,42.50
2018-04-28T14:59:22.986Z,42.50
2018-04-28T15:01:51.233Z,42.30
2018-04-28T15:04:20.237Z,42.30
2018-04-28T15:06:48.488Z,42.20
2018-04-28T15:09:17.512Z,43.60
2018-04-28T15:11:45.790Z,42.90
2018-04-28T15:14:14.032Z,43.40
2018-04-28T15:16:43.078Z,43.70
2018-04-28T15:19:11.283Z,43.40
2018-04-28T15:21:39.516Z,42.60
2018-04-28T15:24:07.765Z,42.20
2018-04-28T15:26:36.770Z,42.80
2018-04-28T15:29:05.007Z,42.70
2018-04-28T15:31:33.261Z,43.20
2018-04-28T15:34:01.732Z,43.10
2018-04-28T15:36:29.959Z,42.90
2018-04-28T15:38:58.957Z,43.00
2018-04-28T15:41:27.965Z,43.10
2018-04-28T15:43:56.206Z,43.10
2018-04-28T15:46:24.566Z,42.90
2018-04-28T15:48:52.805Z,42.60
2018-04-28T15:51:21.047Z,42.80
2018-04-28T15:53:50.365Z,43.70
2018-04-28T15:56:18.667Z,43.70
2018-04-28T15:58:46.934Z,43.90
2018-04-28T16:01:15.182Z,43.70
2018-04-28T16:03:44.422Z,44.20
2018-04-28T16:06:12.686Z,44.20
2018-04-28T16:08:40.924Z,44.20
2018-04-28T16:11:10.235Z,43.70
2018-04-28T16:13:39.229Z,43.80
2018-04-28T16:16:07.475Z,43.80
2018-04-28T16:18:35.715Z,58.30
2018-04-28T16:21:03.976Z,53.20
2018-04-28T16:23:32.206Z,51.50
2018-04-28T16:26:01.230Z,48.40
2018-04-28T16:28:29.475Z,48.40
2018-04-28T16:30:57.717Z,48.30
2018-04-28T16:33:25.965Z,48.50
2018-04-28T16:35:54.225Z,48.20
2018-04-28T16:38:22.469Z,47.20
2018-04-28T16:40:50.721Z,47.40
2018-04-28T16:43:18.968Z,46.70
2018-04-28T16:45:47.221Z,46.90
2018-04-28T16:48:16.221Z,46.60
2018-04-28T16:50:44.472Z,46.50
2018-04-28T16:53:12.714Z,46.20
2018-04-28T16:55:40.974Z,46.20
2018-04-28T16:58:09.219Z,46.90
2018-04-28T17:00:38.226Z,47.00
2018-04-28T17:03:06.466Z,47.00
2018-04-28T17:05:35.493Z,46.50
2018-04-28T17:08:03.941Z,47.00
2018-04-28T17:10:32.963Z,47.10
2018-04-28T17:13:01.210Z,46.90
2018-04-28T17:15:29.532Z,46.90
2018-04-28T17:17:57.773Z,47.80
2018-04-28T17:20:26.785Z,47.40
2018-04-28T17:22:55.024Z,47.30
2018-04-28T17:25:23.262Z,47.40
2018-04-28T17:27:51.514Z,48.50
2018-04-28T17:30:19.765Z,48.70
2018-04-28T17:32:48.766Z,48.40
2018-04-28T17:35:17.781Z,48.60
2018-04-28T17:37:46.014Z,48.50
2018-04-28T17:40:14.557Z,48.90
2018-04-28T17:42:42.869Z,49.20
2018-04-28T17:45:11.045Z,49.00
2018-04-28T17:47:39.398Z,49.70
2018-04-28T17:50:07.644Z,49.70
2018-04-28T17:52:35.879Z,50.40
2018-04-28T17:55:04.904Z,50.30
2018-04-28T17:57:33.156Z,50.30
2018-04-28T18:00:02.162Z,50.70
2018-04-28T18:02:30.797Z,50.50
2018-04-28T18:04:59.741Z,50.20
2018-04-28T18:07:27.985Z,50.20
2018-04-28T18:09:57.238Z,51.20
2018-04-28T18:12:25.489Z,51.00
2018-04-28T18:14:53.743Z,51.20
2018-04-28T18:17:23.497Z,51.60
2018-04-28T18:19:52.662Z,51.70
2018-04-28T18:22:20.915Z,51.70
2018-04-28T18:24:49.150Z,51.60
2018-04-28T18:27:17.503Z,51.90
2018-04-28T18:29:47.876Z,52.10
2018-04-28T18:32:16.114Z,52.20
2018-04-28T18:34:48.125Z,52.30
2018-04-28T18:37:17.126Z,52.90
2018-04-28T18:39:45.642Z,52.90
2018-04-28T18:42:13.941Z,52.60
2018-04-28T18:44:42.182Z,52.60
2018-04-28T18:47:11.202Z,52.70
2018-04-28T18:49:39.458Z,52.80
2018-04-28T18:52:08.508Z,52.20
2018-04-28T18:54:36.765Z,52.10
2018-04-28T18:57:05.006Z,52.30
2018-04-28T18:59:33.262Z,52.90
2018-04-28T19:02:02.278Z,52.90
2018-04-28T19:04:31.301Z,52.90
2018-04-28T19:06:59.533Z,52.80
2018-04-28T19:09:28.534Z,52.50
2018-04-28T19:11:56.789Z,52.50
2018-04-28T19:14:25.026Z,52.70
2018-04-28T19:16:53.319Z,52.80
2018-04-28T19:19:21.588Z,53.00
2018-04-28T19:21:49.858Z,53.10
2018-04-28T19:24:18.186Z,53.00
2018-04-28T19:26:47.217Z,53.20
2018-04-28T19:29:15.459Z,53.20
2018-04-28T19:31:44.454Z,53.50
2018-04-28T19:34:12.699Z,53.50
2018-04-28T19:36:40.945Z,53.30
2018-04-28T19:39:09.258Z,53.70
2018-04-28T19:41:38.286Z,54.20
2018-04-28T19:44:06.550Z,53.50
2018-04-28T19:46:35.572Z,53.50
2018-04-28T19:49:03.841Z,53.50
2018-04-28T19:51:32.334Z,53.50
2018-04-28T19:54:00.596Z,53.50
2018-04-28T19:56:28.878Z,53.80
2018-04-28T19:58:57.144Z,54.00
2018-04-28T20:01:25.427Z,53.90
2018-04-28T20:03:53.685Z,54.20
2018-04-28T20:06:21.952Z,54.70
2018-04-28T20:08:50.973Z,54.60
2018-04-28T20:11:19.222Z,54.60
2018-04-28T20:13:48.242Z,54.70
2018-04-28T20:16:16.485Z,54.60
2018-04-28T20:18:45.490Z,54.10
2018-04-28T20:21:13.739Z,54.10
2018-04-28T20:23:59.630Z,54.20
2018-04-28T20:26:28.634Z,54.40
2018-04-28T20:28:57.657Z,54.50
2018-04-28T20:31:25.885Z,54.50
2018-04-28T20:33:54.889Z,54.30
2018-04-28T20:36:23.918Z,54.50
2018-04-28T20:38:52.153Z,54.50
2018-04-28T20:41:21.154Z,54.00
2018-04-28T20:43:50.177Z,54.50
2018-04-28T20:46:18.414Z,54.60
2018-04-28T20:48:47.430Z,54.90
2018-04-28T20:51:15.671Z,54.20
2018-04-28T20:53:43.906Z,54.50
2018-04-28T20:56:12.155Z,54.20
2018-04-28T20:58:40.402Z,54.40
2018-04-28T21:01:08.654Z,54.40
2018-04-28T21:03:36.888Z,54.30
2018-04-28T21:06:05.547Z,54.00
2018-04-28T21:08:33.837Z,54.70
2018-04-28T21:11:02.096Z,54.20
2018-04-28T21:13:30.351Z,54.40
2018-04-28T21:15:58.579Z,54.80
2018-04-28T21:18:26.829Z,55.10
2018-04-28T21:20:55.834Z,55.00
2018-04-28T21:23:24.837Z,54.80
2018-04-28T21:25:53.093Z,54.80
2018-04-28T21:28:22.094Z,54.70
2018-04-28T21:30:50.341Z,54.60
2018-04-28T21:33:19.354Z,55.20
2018-04-28T21:35:48.353Z,55.60
2018-04-28T21:38:17.625Z,55.20
2018-04-28T21:40:47.372Z,55.60
2018-04-28T21:43:15.619Z,55.60
2018-04-28T21:45:44.634Z,56.40
2018-04-28T21:48:12.874Z,55.70
2018-04-28T21:50:41.897Z,55.90
2018-04-28T21:53:10.919Z,56.00
2018-04-28T21:55:39.961Z,56.30
2018-04-28T21:58:08.969Z,56.40
2018-04-28T22:00:38.010Z,56.40
2018-04-28T22:03:06.327Z,56.20
2018-04-28T22:05:36.078Z,56.80
2018-04-28T22:08:04.337Z,56.80
2018-04-28T22:10:33.352Z,57.00
2018-04-28T22:13:01.619Z,57.00
2018-04-28T22:15:29.886Z,57.10
2018-04-28T22:17:58.393Z,57.20
2018-04-28T22:20:26.641Z,57.30
2018-04-28T22:22:55.637Z,57.60
2018-04-28T22:25:24.173Z,57.60
2018-04-28T22:27:52.418Z,57.50
2018-04-28T22:30:20.645Z,57.60
2018-04-28T22:32:49.657Z,57.80
2018-04-28T22:35:18.674Z,57.80
2018-04-28T22:37:46.906Z,57.80
2018-04-28T22:40:15.907Z,58.60
2018-04-28T22:42:45.175Z,58.20
2018-04-28T22:45:14.186Z,57.70
2018-04-28T22:47:43.190Z,57.90
2018-04-28T22:50:12.201Z,58.50
2018-04-28T22:52:40.442Z,58.40
2018-04-28T22:55:10.213Z,58.50
2018-04-28T22:57:38.453Z,58.50
2018-04-28T23:00:07.496Z,58.50
2018-04-28T23:02:36.005Z,58.40
2018-04-28T23:05:05.001Z,58.50
2018-04-28T23:07:34.012Z,58.20
2018-04-28T23:10:03.264Z,58.20
2018-04-28T23:12:31.503Z,58.10
2018-04-28T23:14:59.742Z,59.10
2018-04-28T23:17:29.509Z,59.20
2018-04-28T23:19:57.750Z,59.20
2018-04-28T23:22:26.858Z,59.30
2018-04-28T23:24:55.102Z,59.30
2018-04-28T23:27:24.840Z,59.60
2018-04-28T23:29:53.090Z,59.60
2018-04-28T23:32:22.108Z,60.00
2018-04-28T23:34:51.206Z,59.80
2018-04-28T23:37:20.466Z,60.00
2018-04-28T23:39:49.474Z,60.10
2018-04-28T23:42:18.472Z,60.30
2018-04-28T23:44:47.739Z,60.30
2018-04-28T23:47:15.965Z,60.20
2018-04-28T23:49:44.214Z,60.40
2018-04-28T23:52:12.463Z,60.90
2018-04-28T23:54:40.702Z,60.90
2018-04-28T23:57:09.010Z,60.80
2018-04-28T23:59:37.245Z,61.40
